Time;durP1;ratioP1;P1;durP2;ratioP2;P2;SDS_P1;SDS_P2;PMS_P1;PMS_P2;Temp;Humidity;BMP_temperature;BMP_pressure;BME280_temperature;BME280_humidity;BME280_pressure;Samples;Min_cycle;Max_cycle;Signal;HPM_P1;HPM_P2
2021/01/21 00:01:01;;;;;;;0.20;0.20;;;16.80;32.90;;;;;;6324526;28;20402;-74
2021/01/21 00:04:02;;;;;;;1.45;0.50;;;16.70;33.10;;;;;;6291769;28;20035;-74
2021/01/21 00:07:03;;;;;;;0.50;0.25;;;16.70;33.30;;;;;;6305660;28;20041;-75
2021/01/21 00:10:04;;;;;;;0.63;0.30;;;16.60;33.60;;;;;;6294442;28;20163;-75
2021/01/21 00:13:05;;;;;;;0.35;0.25;;;16.60;34.00;;;;;;6294147;28;20469;-76
2021/01/21 00:16:06;;;;;;;0.60;0.40;;;16.50;34.30;;;;;;6292431;28;20105;-75
2021/01/21 00:19:07;;;;;;;0.28;0.20;;;16.40;34.80;;;;;;6323840;28;20413;-76
2021/01/21 00:22:08;;;;;;;1.13;0.43;;;16.40;35.00;;;;;;6297974;28;20032;-76
2021/01/21 00:25:09;;;;;;;1.17;0.30;;;16.20;35.10;;;;;;6281065;28;20033;-74
2021/01/21 00:28:10;;;;;;;0.52;0.40;;;16.30;35.70;;;;;;6309948;28;20033;-76
2021/01/21 00:31:11;;;;;;;0.63;0.45;;;16.20;35.90;;;;;;6318380;28;20036;-74
2021/01/21 00:34:12;;;;;;;1.40;0.30;;;16.20;36.30;;;;;;6323063;28;20029;-75
2021/01/21 00:37:13;;;;;;;0.68;0.38;;;16.10;36.70;;;;;;6275615;28;20036;-76
2021/01/21 00:40:14;;;;;;;0.30;0.30;;;16.10;36.80;;;;;;6318373;28;20040;-75
2021/01/21 00:43:15;;;;;;;1.15;0.40;;;16.00;37.20;;;;;;6291279;28;20036;-75
2021/01/21 00:46:17;;;;;;;0.93;0.30;;;16.00;37.50;;;;;;6304501;28;20067;-75
2021/01/21 00:49:18;;;;;;;0.28;0.20;;;15.90;37.70;;;;;;6292433;28;20029;-75
2021/01/21 00:52:19;;;;;;;0.75;0.30;;;15.90;37.90;;;;;;6325041;27;20029;-75
2021/01/21 00:55:20;;;;;;;0.75;0.47;;;15.80;38.10;;;;;;6325153;28;20484;-75
2021/01/21 00:58:21;;;;;;;0.15;0.15;;;15.80;38.30;;;;;;6293379;28;20357;-75
2021/01/21 01:01:23;;;;;;;0.50;0.50;;;15.80;38.90;;;;;;6291073;28;20473;-75
2021/01/21 01:04:24;;;;;;;4.65;0.57;;;15.80;39.30;;;;;;6300290;28;20111;-74
2021/01/21 01:07:27;;;;;;;0.93;0.30;;;15.70;39.70;;;;;;6307928;28;20032;-75
2021/01/21 01:10:28;;;;;;;0.43;0.28;;;15.70;39.80;;;;;;6273396;28;20033;-74
2021/01/21 01:13:33;;;;;;;0.40;0.25;;;15.70;40.30;;;;;;6277243;28;20069;-75
2021/01/21 01:16:40;;;;;;;0.60;0.60;;;15.60;40.90;;;;;;6292987;28;20366;-75
2021/01/21 01:19:43;;;;;;;0.32;0.20;;;15.40;41.50;;;;;;6295858;28;20056;-75
2021/01/21 01:22:53;;;;;;;0.10;0.10;;;15.40;41.80;;;;;;6291271;28;20045;-74
2021/01/21 01:25:54;;;;;;;;;;;15.30;42.60;;;;;;6292954;28;20040;-74
2021/01/21 01:28:55;;;;;;;0.73;0.30;;;15.20;43.10;;;;;;6292651;28;19966;-74
2021/01/21 01:31:56;;;;;;;0.13;0.13;;;15.20;43.50;;;;;;6275779;28;20047;-74
2021/01/21 01:35:05;;;;;;;0.50;0.20;;;15.10;43.60;;;;;;6277828;28;20036;-74
2021/01/21 01:38:06;;;;;;;2.05;0.10;;;15.10;44.00;;;;;;6298524;28;20080;-75
2021/01/21 01:41:09;;;;;;;0.20;0.20;;;15.00;44.20;;;;;;6294057;28;20048;-75
2021/01/21 01:44:10;;;;;;;0.35;0.20;;;15.00;44.70;;;;;;6293243;28;20025;-75
2021/01/21 01:47:12;;;;;;;0.22;0.20;;;14.90;44.60;;;;;;6281366;28;20077;-74
2021/01/21 01:50:15;;;;;;;0.08;0.08;;;14.90;44.50;;;;;;6250546;28;20033;-76
2021/01/21 01:53:17;;;;;;;0.25;0.20;;;14.90;44.60;;;;;;6266564;28;20037;-75
2021/01/21 01:56:22;;;;;;;0.80;0.30;;;14.90;44.60;;;;;;6267328;28;20029;-74
2021/01/21 01:59:31;;;;;;;0.45;0.45;;;14.90;44.30;;;;;;6268420;28;20033;-74
2021/01/21 02:02:34;;;;;;;0.15;0.15;;;15.00;44.00;;;;;;6265890;28;20099;-74
2021/01/21 02:05:37;;;;;;;0.03;0.03;;;15.00;43.80;;;;;;6272490;28;20079;-74
2021/01/21 02:08:38;;;;;;;1.30;0.20;;;15.10;43.70;;;;;;6270587;28;20374;-74
2021/01/21 02:12:01;;;;;;;0.15;0.15;;;15.10;43.60;;;;;;6287242;28;20091;-74
2021/01/21 02:15:12;;;;;;;0.20;0.20;;;15.10;43.50;;;;;;6274017;28;20076;-74
2021/01/21 02:18:28;;;;;;;0.40;0.30;;;15.10;43.40;;;;;;6273476;28;20033;-74
2021/01/21 02:21:58;;;;;;;0.10;0.10;;;15.10;43.30;;;;;;6273633;28;20029;-74
2021/01/21 02:25:10;;;;;;;0.25;0.13;;;15.20;43.10;;;;;;6269547;28;20400;-75
2021/01/21 02:28:26;;;;;;;0.35;0.20;;;15.20;42.90;;;;;;6293624;28;20044;-74
2021/01/21 02:31:39;;;;;;;0.40;0.20;;;15.20;42.70;;;;;;6297900;28;20029;-75
2021/01/21 02:34:51;;;;;;;0.10;0.10;;;15.30;42.70;;;;;;6324158;28;20078;-75
2021/01/21 02:38:00;;;;;;;;;;;15.30;42.50;;;;;;6325685;28;20037;-76
2021/01/21 02:41:05;;;;;;;0.20;0.20;;;15.40;42.90;;;;;;6305018;28;19912;-76
2021/01/21 02:44:09;;;;;;;0.10;0.10;;;15.40;42.00;;;;;;6284530;28;20044;-74
2021/01/21 02:47:12;;;;;;;0.10;0.10;;;15.40;41.90;;;;;;6296921;28;20025;-75
2021/01/21 02:50:13;;;;;;;0.10;0.10;;;15.40;41.80;;;;;;6298548;28;20151;-75
2021/01/21 02:53:15;;;;;;;2.30;0.20;;;15.50;41.70;;;;;;6294564;28;20040;-75
2021/01/21 02:56:20;;;;;;;0.08;0.08;;;15.50;41.50;;;;;;6282848;28;20037;-74
2021/01/21 02:59:37;;;;;;;0.40;0.20;;;15.60;41.50;;;;;;6278099;28;20029;-74
2021/01/21 03:02:48;;;;;;;0.30;0.25;;;15.60;41.40;;;;;;6287085;28;20041;-74
2021/01/21 03:05:52;;;;;;;0.13;0.13;;;15.70;41.40;;;;;;6302561;28;20041;-75
2021/01/21 03:08:54;;;;;;;0.10;0.10;;;15.70;41.40;;;;;;6280699;28;20181;-75
2021/01/21 03:12:22;;;;;;;0.13;0.13;;;15.70;41.40;;;;;;6273803;28;20370;-75
2021/01/21 03:15:26;;;;;;;0.70;0.17;;;15.70;41.30;;;;;;6298495;28;20076;-75
2021/01/21 03:18:38;;;;;;;0.30;0.20;;;15.70;41.30;;;;;;6309195;28;20047;-75
2021/01/21 03:21:41;;;;;;;0.20;0.10;;;15.70;41.30;;;;;;6332577;27;20115;-75
2021/01/21 03:24:49;;;;;;;0.40;0.10;;;15.70;41.30;;;;;;6293376;28;20044;-75
2021/01/21 03:28:00;;;;;;;0.75;0.20;;;15.70;41.30;;;;;;6308715;28;20478;-75
2021/01/21 03:35:27;;;;;;;0.17;0.17;;;15.70;41.40;;;;;;6292356;28;20373;-75
2021/01/21 03:38:29;;;;;;;0.30;0.10;;;15.70;41.30;;;;;;6296281;28;20179;-76
2021/01/21 03:41:52;;;;;;;0.10;0.10;;;15.70;41.30;;;;;;6293617;28;20070;-76
2021/01/21 03:45:19;;;;;;;0.20;0.15;;;15.70;41.20;;;;;;6291035;28;20060;-75
2021/01/21 03:48:21;;;;;;;0.00;0.00;;;15.80;41.80;;;;;;6292491;28;20049;-75
2021/01/21 03:52:01;;;;;;;0.60;0.23;;;15.80;41.10;;;;;;6309987;28;20040;-75
2021/01/21 03:55:11;;;;;;;0.03;0.03;;;15.80;41.00;;;;;;6291973;28;20127;-75
2021/01/21 03:58:12;;;;;;;0.13;0.13;;;15.90;41.00;;;;;;6278297;28;20028;-74
2021/01/21 04:01:22;;;;;;;0.77;0.10;;;15.90;40.90;;;;;;6291857;28;20044;-74
2021/01/21 04:04:25;;;;;;;0.05;0.05;;;15.90;40.80;;;;;;6293250;28;20041;-74
2021/01/21 04:07:26;;;;;;;0.15;0.15;;;15.90;40.70;;;;;;6276312;28;20036;-74
2021/01/21 04:10:27;;;;;;;0.10;0.10;;;15.90;40.50;;;;;;6305116;28;20090;-76
2021/01/21 04:13:37;;;;;;;0.10;0.10;;;16.00;40.40;;;;;;6302761;28;20039;-74
2021/01/21 04:16:47;;;;;;;0.00;0.00;;;16.00;40.20;;;;;;6277208;28;20032;-75
2021/01/21 04:19:48;;;;;;;0.10;0.10;;;16.10;40.10;;;;;;6292486;28;20043;-76
2021/01/21 04:22:49;;;;;;;0.08;0.08;;;16.20;39.90;;;;;;6274185;28;20033;-76
2021/01/21 04:25:50;;;;;;;0.17;0.10;;;16.20;39.80;;;;;;6302071;28;20036;-76
2021/01/21 04:28:52;;;;;;;0.10;0.10;;;16.30;39.60;;;;;;6320674;27;20036;-74
2021/01/21 04:31:53;;;;;;;0.10;0.10;;;16.30;39.50;;;;;;6303801;28;20033;-74
2021/01/21 04:34:58;;;;;;;0.00;0.00;;;16.30;39.40;;;;;;6322907;28;20074;-75
2021/01/21 04:38:00;;;;;;;0.17;0.10;;;16.30;39.30;;;;;;6290225;28;20029;-74
2021/01/21 04:41:12;;;;;;;0.60;0.20;;;16.40;39.30;;;;;;6276174;28;20405;-74
2021/01/21 04:44:39;;;;;;;0.57;0.22;;;16.40;39.30;;;;;;6276877;28;20032;-75
2021/01/21 04:47:48;;;;;;;0.45;0.15;;;16.40;39.30;;;;;;6287367;28;20031;-76
2021/01/21 04:51:01;;;;;;;0.20;0.10;;;16.40;39.40;;;;;;6303263;28;20056;-74
2021/01/21 04:54:13;;;;;;;1.95;0.03;;;16.40;39.50;;;;;;6302513;28;20045;-74
2021/01/21 04:57:43;;;;;;;4.18;0.50;;;16.40;39.50;;;;;;6291834;28;20373;-75
2021/01/21 05:00:52;;;;;;;0.68;0.13;;;16.40;39.60;;;;;;6291808;28;20102;-75
2021/01/21 05:03:53;;;;;;;1.38;0.10;;;16.40;39.70;;;;;;6286781;28;20110;-75
2021/01/21 05:07:13;;;;;;;0.00;0.00;;;16.30;39.70;;;;;;6267087;28;20037;-74
2021/01/21 05:10:16;;;;;;;0.40;0.20;;;16.30;39.80;;;;;;6265681;28;20084;-74
2021/01/21 05:13:18;;;;;;;0.10;0.10;;;16.30;39.90;;;;;;6266702;28;20052;-75
2021/01/21 05:16:51;;;;;;;0.10;0.10;;;16.30;40.00;;;;;;6259923;28;20045;-74
2021/01/21 05:20:12;;;;;;;0.10;0.00;;;16.30;40.00;;;;;;6212954;28;20458;-74
2021/01/21 05:23:32;;;;;;;0.13;0.10;;;16.30;40.00;;;;;;6194351;28;20129;-74
2021/01/21 05:26:56;;;;;;;0.30;0.10;;;16.30;40.10;;;;;;6106767;29;20054;-74
2021/01/21 05:30:19;;;;;;;0.20;0.20;;;16.30;40.00;;;;;;6117234;29;20437;-75
2021/01/21 05:33:21;;;;;;;0.17;0.10;;;16.30;40.00;;;;;;6100465;29;20039;-75
2021/01/21 05:36:44;;;;;;;0.10;0.10;;;16.30;39.80;;;;;;6122091;29;20048;-75
2021/01/21 05:39:57;;;;;;;0.05;0.05;;;16.30;39.80;;;;;;6124043;29;20497;-75
2021/01/21 05:43:18;;;;;;;0.80;0.17;;;16.30;39.80;;;;;;6108840;29;20040;-75
2021/01/21 05:46:35;;;;;;;0.00;0.00;;;16.40;39.80;;;;;;6111440;29;20040;-74
2021/01/21 05:49:37;;;;;;;0.20;0.15;;;16.30;39.80;;;;;;6118325;29;20032;-75
2021/01/21 05:52:43;;;;;;;0.98;0.00;;;16.30;39.70;;;;;;6124892;28;20079;-74
2021/01/21 05:55:44;;;;;;;0.73;0.20;;;16.40;39.70;;;;;;6109458;28;20047;-79
2021/01/21 05:58:46;;;;;;;0.25;0.10;;;16.40;39.80;;;;;;6183474;28;20054;-81
2021/01/21 06:01:48;;;;;;;0.45;0.17;;;16.40;39.70;;;;;;6159460;28;20439;-81
2021/01/21 06:04:59;;;;;;;0.00;0.00;;;16.40;39.60;;;;;;6274517;28;20044;-81
2021/01/21 06:08:03;;;;;;;0.20;0.10;;;16.50;39.70;;;;;;6286352;28;20048;-87
2021/01/21 06:11:07;;;;;;;0.10;0.10;;;16.50;39.70;;;;;;6303597;28;20358;-78
2021/01/21 06:14:10;;;;;;;0.00;0.00;;;16.50;39.60;;;;;;6294647;28;20399;-78
2021/01/21 06:17:11;;;;;;;0.52;0.40;;;16.50;39.60;;;;;;6290713;28;20376;-78
2021/01/21 06:20:32;;;;;;;0.70;0.22;;;16.50;39.60;;;;;;6289510;28;20039;-80
2021/01/21 06:23:48;;;;;;;0.57;0.17;;;16.50;39.60;;;;;;6279316;28;20036;-91
2021/01/21 06:27:02;;;;;;;0.10;0.10;;;16.50;39.60;;;;;;6319025;28;20040;-82
2021/01/21 06:30:04;;;;;;;0.40;0.20;;;16.50;39.80;;;;;;6296461;28;20370;-81
2021/01/21 06:33:08;;;;;;;0.47;0.20;;;16.50;39.80;;;;;;6288701;28;20040;-81
2021/01/21 06:36:15;;;;;;;0.63;0.30;;;16.50;40.00;;;;;;6292782;28;20055;-82
2021/01/21 06:39:41;;;;;;;4.13;0.17;;;16.50;40.00;;;;;;6307016;28;20035;-83
2021/01/21 06:42:58;;;;;;;0.10;0.10;;;16.50;40.00;;;;;;6293248;28;20032;-81
2021/01/21 06:45:59;;;;;;;3.25;0.47;;;16.50;40.00;;;;;;6311940;28;20028;-79
2021/01/21 06:49:01;;;;;;;0.82;0.20;;;16.50;40.00;;;;;;6274770;28;20033;-79
2021/01/21 06:52:05;;;;;;;1.90;0.20;;;16.50;40.00;;;;;;6295526;28;20032;-78
2021/01/21 06:55:11;;;;;;;0.20;0.20;;;16.50;39.90;;;;;;6290750;28;20384;-78
2021/01/21 06:58:12;;;;;;;0.57;0.22;;;16.50;39.90;;;;;;6295915;28;20485;-78
2021/01/21 07:01:31;;;;;;;2.67;0.20;;;16.50;39.80;;;;;;6328013;27;20868;-79
2021/01/21 07:04:33;;;;;;;0.20;0.20;;;16.50;39.80;;;;;;6277867;28;20059;-78
2021/01/21 07:08:01;;;;;;;0.40;0.30;;;16.50;39.80;;;;;;6291031;28;20032;-79
2021/01/21 07:11:03;;;;;;;1.00;0.28;;;16.50;40.00;;;;;;6289524;28;20036;-78
2021/01/21 07:14:09;;;;;;;0.82;0.45;;;16.50;40.00;;;;;;6295379;28;20040;-78
2021/01/21 07:17:11;;;;;;;0.20;0.20;;;16.50;40.10;;;;;;6319673;28;20090;-78
2021/01/21 07:20:12;;;;;;;0.32;0.32;;;16.50;40.20;;;;;;6328668;27;20036;-80
2021/01/21 07:23:17;;;;;;;0.20;0.20;;;16.50;40.30;;;;;;6293034;28;21547;-78
2021/01/21 07:26:38;;;;;;;0.82;0.22;;;16.40;40.30;;;;;;6295668;28;20446;-79
2021/01/21 07:29:39;;;;;;;0.35;0.28;;;16.50;40.40;;;;;;6252920;28;20040;-78
2021/01/21 07:32:41;;;;;;;0.52;0.30;;;16.50;40.40;;;;;;6236417;28;20043;-77
2021/01/21 07:35:42;;;;;;;0.20;0.20;;;16.50;40.50;;;;;;6250915;28;20045;-77
2021/01/21 07:38:43;;;;;;;1.17;0.45;;;16.50;40.50;;;;;;6244909;28;20116;-78
2021/01/21 07:41:53;;;;;;;1.00;0.35;;;16.50;40.50;;;;;;6249811;28;20040;-78
2021/01/21 07:44:56;;;;;;;0.52;0.40;;;16.50;40.50;;;;;;6249486;28;20037;-80
2021/01/21 07:48:16;;;;;;;1.08;0.50;;;16.50;40.50;;;;;;6266066;28;20048;-79
2021/01/21 07:51:19;;;;;;;0.47;0.40;;;16.60;40.60;;;;;;6267237;28;20069;-78
2021/01/21 07:54:20;;;;;;;0.80;0.45;;;16.60;40.60;;;;;;6254017;28;20044;-79
2021/01/21 07:57:23;;;;;;;15.55;7.07;;;16.60;40.60;;;;;;6252200;28;20044;-79
2021/01/21 08:00:24;;;;;;;0.95;0.70;;;16.60;40.70;;;;;;6278927;28;20400;-80
2021/01/21 08:03:28;;;;;;;0.70;0.60;;;16.50;40.80;;;;;;6292826;28;20109;-79
2021/01/21 08:06:29;;;;;;;3.20;0.60;;;16.50;40.90;;;;;;6293902;28;20372;-77
2021/01/21 08:09:30;;;;;;;0.52;0.50;;;16.50;41.00;;;;;;6290832;28;20112;-77
2021/01/21 08:12:32;;;;;;;3.88;0.98;;;16.50;41.80;;;;;;6295051;28;20043;-76
2021/01/21 08:15:35;;;;;;;1.40;0.65;;;16.50;41.20;;;;;;6282204;28;20029;-77
2021/01/21 08:18:36;;;;;;;2.45;0.65;;;16.50;41.30;;;;;;6290208;28;20085;-77
2021/01/21 08:22:19;;;;;;;3.67;0.82;;;16.60;41.20;;;;;;6264453;28;20103;-78
2021/01/21 08:25:21;;;;;;;6.25;0.73;;;16.60;41.30;;;;;;6311873;27;20032;-78
2021/01/21 08:28:25;;;;;;;1.60;0.75;;;16.70;41.30;;;;;;6295452;28;20170;-78
2021/01/21 08:31:32;;;;;;;2.63;0.90;;;16.70;41.20;;;;;;6299312;27;20082;-78
2021/01/21 08:34:33;;;;;;;12.40;5.32;;;16.70;41.20;;;;;;6288994;28;20042;-77
2021/01/21 08:37:39;;;;;;;0.73;0.57;;;16.70;41.20;;;;;;6289020;28;20032;-77
2021/01/21 08:40:42;;;;;;;1.05;0.88;;;16.70;41.30;;;;;;6254261;28;20033;-77
2021/01/21 08:43:44;;;;;;;0.65;0.60;;;16.80;41.30;;;;;;6268842;28;20485;-77
2021/01/21 08:46:59;;;;;;;1.25;0.70;;;16.80;41.30;;;;;;6268076;28;20040;-77
2021/01/21 08:50:00;;;;;;;2.20;0.60;;;16.80;41.30;;;;;;6252708;28;20040;-76
2021/01/21 08:53:20;;;;;;;1.35;0.57;;;16.80;41.20;;;;;;6233258;28;20041;-77
2021/01/21 08:56:32;;;;;;;1.52;0.93;;;16.90;41.10;;;;;;6211373;28;20173;-79
2021/01/21 08:59:34;;;;;;;0.63;0.53;;;16.90;41.00;;;;;;6270635;28;20090;-75
2021/01/21 09:02:42;;;;;;;1.92;0.50;;;17.00;40.90;;;;;;6289504;28;20465;-81
2021/01/21 09:05:56;;;;;;;0.43;0.43;;;17.00;40.90;;;;;;6318973;28;20044;-77
2021/01/21 09:08:58;;;;;;;0.50;0.50;;;17.10;40.90;;;;;;6277727;28;20047;-84
2021/01/21 09:12:16;;;;;;;0.70;0.70;;;17.10;40.60;;;;;;6322288;28;20152;-85
2021/01/21 09:15:17;;;;;;;2.42;0.60;;;17.20;40.50;;;;;;6331821;27;20447;-85
2021/01/21 09:18:20;;;;;;;6.00;0.52;;;17.30;40.20;;;;;;6308784;28;20083;-83
2021/01/21 09:21:21;;;;;;;1.13;0.80;;;17.30;40.10;;;;;;6304047;28;20034;-85
2021/01/21 09:24:22;;;;;;;1.27;0.50;;;17.40;40.00;;;;;;6290176;28;20033;-85
2021/01/21 09:27:24;;;;;;;1.52;0.55;;;17.40;39.90;;;;;;6297699;28;20033;-84
2021/01/21 09:30:25;;;;;;;0.68;0.52;;;17.50;39.70;;;;;;6300084;28;20031;-86
2021/01/21 09:33:27;;;;;;;1.70;0.55;;;17.60;39.60;;;;;;6300281;28;20437;-85
2021/01/21 09:36:30;;;;;;;0.57;0.43;;;17.70;39.50;;;;;;6294750;28;20047;-84
2021/01/21 09:39:31;;;;;;;0.55;0.47;;;17.70;39.30;;;;;;6303802;28;20036;-85
2021/01/21 09:42:32;;;;;;;0.50;0.50;;;17.80;39.10;;;;;;6302188;28;20033;-77
2021/01/21 09:45:33;;;;;;;0.88;0.40;;;17.90;39.10;;;;;;6308224;28;20040;-87
2021/01/21 09:48:34;;;;;;;0.75;0.60;;;17.90;39.00;;;;;;6285429;28;20028;-88
2021/01/21 09:51:35;;;;;;;0.75;0.63;;;17.90;38.90;;;;;;6319271;28;20090;-85
2021/01/21 09:54:36;;;;;;;1.35;0.52;;;18.00;38.90;;;;;;6316281;28;20036;-86
2021/01/21 09:57:39;;;;;;;1.15;0.55;;;18.00;38.80;;;;;;6300750;28;20025;-85
2021/01/21 10:00:40;;;;;;;2.38;0.70;;;17.90;38.80;;;;;;6342179;28;20048;-81
2021/01/21 10:03:41;;;;;;;0.30;0.30;;;18.00;38.80;;;;;;6318127;28;20048;-83
2021/01/21 10:06:42;;;;;;;2.20;0.82;;;18.00;38.60;;;;;;6281066;28;20048;-79
2021/01/21 10:09:58;;;;;;;2.65;0.63;;;18.00;38.80;;;;;;6271271;28;20044;-79
2021/01/21 10:13:01;;;;;;;1.98;0.73;;;18.00;38.90;;;;;;6314631;28;20029;-81
2021/01/21 10:16:02;;;;;;;0.95;0.60;;;18.00;38.90;;;;;;6291452;28;20032;-83
2021/01/21 10:19:03;;;;;;;1.52;0.50;;;18.00;39.00;;;;;;6294401;28;20048;-81
2021/01/21 10:22:08;;;;;;;1.65;0.98;;;18.00;39.10;;;;;;6332285;28;20043;-82
2021/01/21 10:25:09;;;;;;;3.92;0.65;;;18.00;39.80;;;;;;6327943;27;20048;-81
2021/01/21 10:28:10;;;;;;;0.63;0.60;;;18.00;39.80;;;;;;6308760;28;20442;-82
2021/01/21 10:31:12;;;;;;;5.60;0.70;;;18.10;39.00;;;;;;6345992;27;20043;-81
2021/01/21 10:34:13;;;;;;;0.52;0.45;;;18.10;39.00;;;;;;6324426;28;20048;-82
2021/01/21 10:37:14;;;;;;;1.42;0.90;;;18.20;38.90;;;;;;6304658;28;20100;-80
2021/01/21 10:40:15;;;;;;;1.65;0.70;;;18.20;39.00;;;;;;6346671;28;20052;-83
2021/01/21 10:43:17;;;;;;;5.40;2.65;;;18.30;39.00;;;;;;6327207;28;20043;-83
2021/01/21 10:46:18;;;;;;;1.58;0.50;;;18.30;39.00;;;;;;6304315;28;20378;-83
2021/01/21 10:49:19;;;;;;;0.55;0.52;;;18.30;38.90;;;;;;6310927;28;20036;-82
2021/01/21 10:52:20;;;;;;;0.85;0.60;;;18.30;38.80;;;;;;6297921;28;20059;-84
2021/01/21 10:55:21;;;;;;;2.08;0.60;;;18.40;38.80;;;;;;6338804;27;20333;-83
2021/01/21 10:58:22;;;;;;;1.65;0.70;;;18.40;38.80;;;;;;6288278;28;20044;-83
2021/01/21 11:01:23;;;;;;;5.03;0.63;;;18.50;38.80;;;;;;6298358;28;20040;-85
2021/01/21 11:04:24;;;;;;;1.70;0.82;;;18.70;38.60;;;;;;6300799;28;20539;-82
2021/01/21 11:07:25;;;;;;;1.80;0.90;;;18.90;38.30;;;;;;6299539;28;20036;-84
2021/01/21 11:10:26;;;;;;;5.30;0.65;;;19.20;37.80;;;;;;6297167;28;20370;-82
2021/01/21 11:13:31;;;;;;;4.13;0.60;;;19.40;37.20;;;;;;6295869;28;20040;-82
2021/01/21 11:16:32;;;;;;;1.35;0.70;;;19.60;37.00;;;;;;6280995;28;20040;-82
2021/01/21 11:19:33;;;;;;;5.30;0.60;;;19.70;36.70;;;;;;6287975;28;20055;-84
2021/01/21 11:22:37;;;;;;;0.50;0.50;;;19.70;36.40;;;;;;6277002;28;20035;-83
2021/01/21 11:25:37;;;;;;;2.05;0.77;;;19.80;36.30;;;;;;6277191;28;20060;-82
2021/01/21 11:28:39;;;;;;;0.73;0.60;;;19.70;36.20;;;;;;6279687;28;20103;-83
2021/01/21 11:31:40;;;;;;;1.48;0.65;;;19.70;36.20;;;;;;6271258;28;20046;-83
2021/01/21 11:34:42;;;;;;;0.93;0.60;;;19.60;36.10;;;;;;6275082;28;20029;-83
2021/01/21 11:37:43;;;;;;;3.08;0.85;;;19.70;36.30;;;;;;6274019;28;20063;-84
2021/01/21 11:40:44;;;;;;;1.02;0.68;;;19.70;36.20;;;;;;6266613;28;20033;-83
2021/01/21 11:43:45;;;;;;;0.98;0.50;;;19.90;36.20;;;;;;6272709;28;20025;-83
2021/01/21 11:46:46;;;;;;;0.57;0.50;;;20.10;35.60;;;;;;6272004;28;20033;-83
2021/01/21 11:49:47;;;;;;;1.50;0.50;;;20.30;34.60;;;;;;6279819;28;20063;-83
2021/01/21 11:52:48;;;;;;;0.40;0.30;;;20.60;34.40;;;;;;6272087;28;20102;-84
2021/01/21 11:55:50;;;;;;;0.52;0.50;;;20.70;33.80;;;;;;6283768;28;20041;-83
2021/01/21 11:58:51;;;;;;;0.73;0.45;;;20.90;33.50;;;;;;6274814;28;20438;-82
2021/01/21 12:01:53;;;;;;;0.52;0.47;;;21.00;33.40;;;;;;6294163;28;20037;-82
2021/01/21 12:04:54;;;;;;;0.85;0.68;;;21.10;33.50;;;;;;6253366;28;20124;-84
2021/01/21 12:07:55;;;;;;;1.02;0.40;;;21.00;33.30;;;;;;6297230;28;20394;-84
2021/01/21 12:10:57;;;;;;;0.65;0.63;;;20.80;33.50;;;;;;6294037;28;20047;-82
2021/01/21 12:13:57;;;;;;;3.17;0.60;;;20.70;34.00;;;;;;6294839;28;20038;-80
2021/01/21 12:16:59;;;;;;;2.35;0.63;;;20.50;34.20;;;;;;6284956;28;20041;-81
2021/01/21 12:20:00;;;;;;;0.77;0.57;;;20.40;34.50;;;;;;6296116;28;20037;-82
2021/01/21 12:23:01;;;;;;;0.55;0.47;;;20.20;34.60;;;;;;6299802;28;20047;-76
2021/01/21 12:26:02;;;;;;;0.95;0.55;;;20.00;34.80;;;;;;6294591;28;20059;-77
2021/01/21 12:29:04;;;;;;;1.10;0.40;;;19.90;35.70;;;;;;6292983;28;20087;-77
2021/01/21 12:32:05;;;;;;;1.35;0.30;;;19.80;35.20;;;;;;6289296;28;20040;-78
2021/01/21 12:35:07;;;;;;;3.10;0.30;;;19.70;35.50;;;;;;6293211;28;20032;-78
2021/01/21 12:38:09;;;;;;;0.65;0.32;;;19.60;35.60;;;;;;6295901;28;20112;-79
2021/01/21 12:41:10;;;;;;;0.65;0.35;;;19.50;35.70;;;;;;6296056;28;20029;-83
2021/01/21 12:44:11;;;;;;;3.38;0.80;;;19.50;35.90;;;;;;6319786;28;20212;-85
2021/01/21 12:47:13;;;;;;;1.98;0.70;;;19.40;36.00;;;;;;6294307;28;20087;-87
2021/01/21 12:50:14;;;;;;;0.70;0.50;;;19.40;36.10;;;;;;6297540;28;20100;-83
2021/01/21 12:53:15;;;;;;;2.80;0.50;;;19.50;36.10;;;;;;6298456;28;20024;-83
2021/01/21 12:56:18;;;;;;;2.40;1.33;;;19.40;36.20;;;;;;6290947;28;20040;-83
2021/01/21 12:59:19;;;;;;;0.60;0.50;;;19.40;36.30;;;;;;6303070;28;20039;-84
2021/01/21 13:02:20;;;;;;;0.82;0.75;;;19.40;36.40;;;;;;6316956;28;20041;-83
2021/01/21 13:05:21;;;;;;;4.03;0.98;;;19.40;36.50;;;;;;6310113;28;20032;-75
2021/01/21 13:08:23;;;;;;;1.15;0.63;;;19.40;36.50;;;;;;6282562;28;20005;-82
2021/01/21 13:11:24;;;;;;;0.80;0.50;;;19.50;36.60;;;;;;6298441;28;20017;-85
2021/01/21 13:14:25;;;;;;;1.85;0.52;;;19.50;37.20;;;;;;6309473;28;20050;-77
2021/01/21 13:17:26;;;;;;;2.08;0.60;;;19.40;36.70;;;;;;6270732;28;20033;-78
2021/01/21 13:20:27;;;;;;;2.17;0.60;;;19.40;36.80;;;;;;6250280;28;20112;-77
2021/01/21 13:23:28;;;;;;;0.47;0.47;;;19.40;36.90;;;;;;6266481;28;20067;-79
2021/01/21 13:26:29;;;;;;;3.13;0.75;;;19.40;37.10;;;;;;6254871;28;20102;-79
2021/01/21 13:29:30;;;;;;;2.58;1.85;;;19.30;37.80;;;;;;6270540;28;20041;-79
2021/01/21 13:32:31;;;;;;;3.22;1.70;;;19.30;37.20;;;;;;6253656;28;20041;-78
2021/01/21 13:35:33;;;;;;;3.25;0.70;;;19.30;37.50;;;;;;6270328;28;20414;-78
2021/01/21 13:38:34;;;;;;;0.93;0.70;;;19.20;37.70;;;;;;6292886;28;20043;-78
2021/01/21 13:41:36;;;;;;;1.00;0.65;;;19.20;38.00;;;;;;6295017;28;20085;-88
2021/01/21 13:44:37;;;;;;;2.30;0.68;;;19.10;38.00;;;;;;6302770;28;20029;-88
2021/01/21 13:47:38;;;;;;;1.50;0.35;;;19.00;38.20;;;;;;6265934;28;20266;-87
2021/01/21 13:50:39;;;;;;;0.88;0.80;;;18.90;38.40;;;;;;6271934;28;20037;-87
2021/01/21 13:53:41;;;;;;;1.77;0.57;;;19.00;38.50;;;;;;6272224;28;20448;-87
2021/01/21 13:56:43;;;;;;;0.77;0.60;;;18.90;38.60;;;;;;6274859;28;20080;-83
2021/01/21 13:59:44;;;;;;;2.38;0.80;;;19.00;38.80;;;;;;6263998;28;20369;-86
2021/01/21 14:02:46;;;;;;;4.28;0.90;;;18.90;38.70;;;;;;6272781;28;20037;-86
2021/01/21 14:05:47;;;;;;;2.78;0.77;;;19.00;38.70;;;;;;6271590;28;20041;-85
2021/01/21 14:08:48;;;;;;;3.67;0.50;;;19.00;38.70;;;;;;6304082;28;20044;-86
2021/01/21 14:11:49;;;;;;;1.10;0.45;;;19.00;38.60;;;;;;6294107;28;20365;-86
2021/01/21 14:14:50;;;;;;;1.20;0.77;;;19.00;38.60;;;;;;6292484;28;20392;-85
2021/01/21 14:17:50;;;;;;;2.40;0.70;;;19.00;38.60;;;;;;6304728;28;20100;-85
2021/01/21 14:20:52;;;;;;;1.55;0.60;;;19.10;38.50;;;;;;6280620;28;20028;-85
2021/01/21 14:23:53;;;;;;;3.67;0.60;;;19.10;38.50;;;;;;6278621;28;20128;-86
2021/01/21 14:26:54;;;;;;;1.10;0.50;;;19.10;38.50;;;;;;6278650;28;20059;-86
2021/01/21 14:29:55;;;;;;;0.47;0.45;;;19.10;38.60;;;;;;6290015;28;20115;-85
2021/01/21 14:32:56;;;;;;;0.50;0.50;;;19.00;38.60;;;;;;6295480;28;20106;-85
2021/01/21 14:35:57;;;;;;;0.55;0.50;;;19.00;38.60;;;;;;6285345;28;20063;-79
2021/01/21 14:39:02;;;;;;;2.17;0.60;;;18.90;38.70;;;;;;6304282;28;20041;-92
2021/01/21 14:42:06;;;;;;;2.20;0.57;;;18.80;38.70;;;;;;6294053;28;20343;-91
2021/01/21 14:45:08;;;;;;;1.33;0.63;;;18.80;38.80;;;;;;6291184;28;20474;-91
2021/01/21 14:48:09;;;;;;;0.40;0.40;;;18.80;38.90;;;;;;6286265;28;20378;-89
2021/01/21 14:51:11;;;;;;;1.38;0.70;;;18.80;38.90;;;;;;6275011;28;20052;-89
2021/01/21 14:54:13;;;;;;;0.50;0.30;;;18.70;38.90;;;;;;6302891;28;20048;-89
2021/01/21 14:57:14;;;;;;;1.13;0.70;;;18.60;39.00;;;;;;6321631;28;20397;-89
2021/01/21 15:00:21;;;;;;;3.83;1.08;;;18.60;39.10;;;;;;6252318;27;20400;-88
2021/01/21 15:03:22;;;;;;;1.13;0.60;;;18.60;39.10;;;;;;6283154;28;20133;-89
2021/01/21 15:06:24;;;;;;;4.03;0.60;;;18.60;39.20;;;;;;6287923;28;20086;-90
2021/01/21 15:09:28;;;;;;;3.10;0.88;;;18.60;39.30;;;;;;6279733;28;20036;-90
2021/01/21 15:12:29;;;;;;;1.50;0.47;;;18.50;39.30;;;;;;6267199;28;20032;-89
2021/01/21 15:15:30;;;;;;;0.77;0.43;;;18.50;39.40;;;;;;6264815;28;20036;-88
2021/01/21 15:18:31;;;;;;;1.83;0.52;;;18.50;39.50;;;;;;6275962;28;20116;-88
2021/01/21 15:21:33;;;;;;;0.60;0.50;;;18.40;39.60;;;;;;6263602;28;20063;-87
2021/01/21 15:24:36;;;;;;;0.98;0.68;;;18.40;39.80;;;;;;6303951;28;20024;-85
2021/01/21 15:27:38;;;;;;;2.33;1.00;;;18.30;39.80;;;;;;6307897;28;20047;-86
2021/01/21 15:30:43;;;;;;;3.13;0.90;;;18.30;40.00;;;;;;6307526;28;20044;-91
2021/01/21 15:33:48;;;;;;;0.93;0.73;;;18.30;40.10;;;;;;6265935;28;20017;-91
2021/01/21 15:40:10;;;;;;;0.95;0.70;;;18.20;40.30;;;;;;6307537;23;20053;-91
2021/01/21 15:43:12;;;;;;;3.58;0.75;;;18.20;40.30;;;;;;6209387;28;20030;-93
2021/01/21 15:46:20;;;;;;;1.17;0.70;;;18.10;40.30;;;;;;6192593;28;20045;-93
2021/01/21 15:49:21;;;;;;;0.60;0.47;;;18.10;40.40;;;;;;6175980;28;20042;-83
2021/01/21 15:52:22;;;;;;;1.90;0.98;;;18.10;40.50;;;;;;6199628;28;20041;-83
2021/01/21 15:55:23;;;;;;;1.48;0.45;;;18.00;40.60;;;;;;6201560;28;20038;-83
2021/01/21 15:58:24;;;;;;;4.75;0.60;;;18.00;40.60;;;;;;6211400;28;20037;-83
2021/01/21 16:01:25;;;;;;;5.70;0.93;;;18.00;40.70;;;;;;6193086;28;20405;-84
2021/01/21 16:04:26;;;;;;;3.65;0.80;;;17.90;40.80;;;;;;6187285;28;20092;-83
2021/01/21 16:07:28;;;;;;;1.60;0.52;;;17.90;40.80;;;;;;6195070;28;20039;-84
2021/01/21 16:10:30;;;;;;;0.65;0.50;;;17.90;40.90;;;;;;6202278;28;20042;-83